Time;durP1;ratioP1;P1;durP2;ratioP2;P2;SDS_P1;SDS_P2;PMS_P1;PMS_P2;Temp;Humidity;BMP_temperature;BMP_pressure;BME280_temperature;BME280_humidity;BME280_pressure;Samples;Min_cycle;Max_cycle;Signal;HPM_P1;HPM_P2
2023/12/10 00:01:41;;;;;;;4.50;1.20;;;21.30;56.90;;;;;;5077758;28;20453;-84
2023/12/10 00:04:10;;;;;;;3.00;1.30;;;21.30;57.00;;;;;;5076157;28;20497;-82
2023/12/10 00:06:38;;;;;;;3.83;1.70;;;21.30;57.00;;;;;;5073019;28;20447;-83
2023/12/10 00:09:08;;;;;;;0.90;0.90;;;21.30;57.00;;;;;;5078574;28;20499;-82
2023/12/10 00:11:36;;;;;;;7.00;1.33;;;21.30;57.10;;;;;;5078825;28;20452;-81
2023/12/10 00:14:05;;;;;;;1.30;1.20;;;21.30;57.10;;;;;;5079563;28;20447;-81
2023/12/10 00:16:34;;;;;;;6.20;1.37;;;21.30;57.10;;;;;;5083430;28;20457;-80
2023/12/10 00:19:02;;;;;;;3.90;1.10;;;21.20;57.10;;;;;;5082395;28;20460;-82
2023/12/10 00:21:31;;;;;;;5.20;0.90;;;21.20;57.10;;;;;;5082967;28;20995;-81
2023/12/10 00:23:59;;;;;;;1.80;0.70;;;21.20;57.10;;;;;;5086087;28;20442;-81
2023/12/10 00:26:29;;;;;;;1.70;1.07;;;21.20;57.10;;;;;;5075121;28;20449;-82
2023/12/10 00:28:57;;;;;;;4.63;1.93;;;21.20;57.20;;;;;;5074577;28;20461;-81
2023/12/10 00:31:25;;;;;;;4.40;1.00;;;21.20;57.20;;;;;;5078010;28;20450;-81
2023/12/10 00:33:54;;;;;;;2.47;0.80;;;21.20;57.20;;;;;;5077178;28;20922;-81
2023/12/10 00:36:23;;;;;;;2.87;0.73;;;21.20;57.20;;;;;;5080020;28;20591;-81
2023/12/10 00:38:52;;;;;;;2.27;0.90;;;21.20;57.20;;;;;;5078670;28;20542;-81
2023/12/10 00:41:21;;;;;;;1.27;0.97;;;21.20;57.20;;;;;;5078241;28;20473;-81
2023/12/10 00:43:51;;;;;;;1.90;0.87;;;21.20;57.20;;;;;;5079100;28;20515;-81
2023/12/10 00:46:19;;;;;;;0.83;0.83;;;21.20;57.20;;;;;;5074600;28;20478;-81
2023/12/10 00:48:47;;;;;;;0.80;0.80;;;21.20;57.20;;;;;;5080760;28;20798;-81
2023/12/10 00:51:19;;;;;;;0.77;0.77;;;21.20;57.20;;;;;;5080253;28;20435;-81
2023/12/10 00:53:48;;;;;;;1.33;0.93;;;21.10;57.20;;;;;;5083173;28;20445;-81
2023/12/10 00:56:17;;;;;;;3.33;0.90;;;21.10;57.20;;;;;;5080043;28;20445;-81
2023/12/10 00:58:45;;;;;;;0.70;0.60;;;21.10;57.20;;;;;;5075800;28;20438;-81
2023/12/10 01:01:15;;;;;;;2.17;1.10;;;21.10;57.20;;;;;;5077251;28;20439;-81
2023/12/10 01:03:43;;;;;;;1.90;0.77;;;21.10;57.30;;;;;;5078427;28;20477;-81
2023/12/10 01:06:12;;;;;;;1.00;0.90;;;21.10;57.30;;;;;;5080057;28;20470;-81
2023/12/10 01:08:40;;;;;;;1.07;0.80;;;21.10;57.20;;;;;;5075004;28;20876;-81
2023/12/10 01:11:08;;;;;;;1.57;0.83;;;21.10;57.20;;;;;;5072122;28;20491;-81
2023/12/10 01:13:37;;;;;;;2.57;0.73;;;21.10;57.20;;;;;;5076106;28;20443;-81
2023/12/10 01:16:06;;;;;;;0.97;0.60;;;21.10;57.20;;;;;;5076875;28;20444;-81
2023/12/10 01:18:37;;;;;;;0.90;0.77;;;21.10;57.20;;;;;;5076730;28;20446;-80
2023/12/10 01:21:09;;;;;;;0.80;0.80;;;21.10;57.20;;;;;;5077943;28;20439;-81
2023/12/10 01:23:38;;;;;;;0.90;0.77;;;21.10;57.20;;;;;;5080043;28;20455;-81
2023/12/10 01:26:07;;;;;;;1.73;0.50;;;21.10;57.10;;;;;;5073605;28;20515;-80
2023/12/10 01:28:35;;;;;;;0.73;0.70;;;21.10;57.10;;;;;;5075480;28;20453;-81
2023/12/10 01:31:04;;;;;;;0.67;0.60;;;21.10;57.10;;;;;;5078353;28;20450;-81
2023/12/10 01:33:32;;;;;;;0.73;0.73;;;21.10;57.10;;;;;;5074193;28;20446;-81
2023/12/10 01:36:02;;;;;;;0.70;0.60;;;21.10;57.10;;;;;;5071319;28;20458;-82
2023/12/10 01:38:31;;;;;;;0.67;0.67;;;21.10;57.10;;;;;;5078043;28;20478;-81
2023/12/10 01:40:59;;;;;;;0.50;0.50;;;21.10;57.10;;;;;;5080455;28;20453;-82
2023/12/10 01:43:27;;;;;;;1.13;0.60;;;21.10;57.10;;;;;;5078811;28;20441;-82
2023/12/10 01:45:56;;;;;;;0.60;0.60;;;21.10;57.10;;;;;;5083380;28;20557;-81
2023/12/10 01:48:25;;;;;;;0.80;0.60;;;21.10;57.10;;;;;;5087013;28;20478;-82
2023/12/10 01:50:54;;;;;;;0.47;0.47;;;21.00;57.10;;;;;;5083153;28;20488;-83
2023/12/10 01:53:24;;;;;;;1.07;0.60;;;21.10;57.10;;;;;;5080906;28;20451;-83
2023/12/10 01:55:53;;;;;;;1.73;0.70;;;21.10;57.10;;;;;;5084721;28;20664;-84
2023/12/10 01:58:22;;;;;;;2.47;0.57;;;21.00;57.10;;;;;;5079289;28;20458;-83
2023/12/10 02:00:52;;;;;;;0.87;0.77;;;21.00;57.10;;;;;;5080301;28;20434;-81
2023/12/10 02:03:21;;;;;;;1.27;0.60;;;21.00;57.10;;;;;;5081757;28;20561;-83
2023/12/10 02:05:50;;;;;;;2.30;0.60;;;21.00;57.10;;;;;;5071673;28;20469;-81
2023/12/10 02:08:19;;;;;;;0.70;0.70;;;21.00;57.10;;;;;;5082194;28;20454;-84
2023/12/10 02:10:49;;;;;;;0.50;0.50;;;21.00;57.20;;;;;;5078022;28;20487;-85
2023/12/10 02:13:18;;;;;;;0.60;0.60;;;21.00;57.10;;;;;;5083380;28;20439;-83
2023/12/10 02:15:46;;;;;;;0.60;0.60;;;21.00;57.10;;;;;;5075854;28;20457;-82
2023/12/10 02:18:17;;;;;;;0.50;0.50;;;21.00;57.10;;;;;;5076970;28;20547;-82
2023/12/10 02:20:46;;;;;;;0.70;0.60;;;21.00;57.10;;;;;;5077434;28;20446;-82
2023/12/10 02:23:26;;;;;;;1.03;0.70;;;21.00;57.10;;;;;;5080975;28;20454;-82
2023/12/10 02:25:57;;;;;;;0.50;0.50;;;21.00;57.10;;;;;;5076988;28;20504;-82
2023/12/10 02:28:25;;;;;;;0.93;0.60;;;21.00;57.10;;;;;;5085641;28;20450;-81
2023/12/10 02:30:54;;;;;;;0.50;0.50;;;21.00;57.00;;;;;;5080563;28;20453;-82
2023/12/10 02:33:22;;;;;;;0.90;0.80;;;21.00;57.10;;;;;;5073860;28;20784;-81
2023/12/10 02:35:51;;;;;;;1.60;0.57;;;21.00;57.10;;;;;;5079924;28;20457;-81
2023/12/10 02:38:21;;;;;;;0.60;0.50;;;20.90;57.20;;;;;;5073905;28;20448;-82
2023/12/10 02:40:49;;;;;;;0.60;0.60;;;20.90;57.20;;;;;;5079897;28;20451;-82
2023/12/10 02:43:20;;;;;;;0.80;0.50;;;20.90;57.20;;;;;;5076720;28;20441;-82
2023/12/10 02:45:48;;;;;;;1.67;0.50;;;21.00;57.10;;;;;;5082910;28;20984;-82
2023/12/10 02:48:21;;;;;;;1.00;0.67;;;20.90;57.20;;;;;;5080833;28;20457;-82
2023/12/10 02:50:50;;;;;;;0.80;0.60;;;20.90;57.10;;;;;;5077267;28;20441;-82
2023/12/10 02:53:19;;;;;;;1.20;0.73;;;20.90;57.10;;;;;;5075012;28;20457;-83
2023/12/10 02:55:47;;;;;;;0.90;0.80;;;20.90;57.10;;;;;;5077625;28;20453;-84
2023/12/10 02:58:16;;;;;;;1.07;0.60;;;20.90;57.10;;;;;;5077004;28;20488;-83
2023/12/10 03:00:46;;;;;;;0.70;0.70;;;20.90;57.20;;;;;;5073727;28;20471;-81
2023/12/10 03:03:14;;;;;;;0.47;0.47;;;20.90;57.10;;;;;;5079400;28;21017;-81
2023/12/10 03:05:43;;;;;;;1.63;0.70;;;20.90;57.10;;;;;;5074898;28;20878;-81
2023/12/10 03:08:11;;;;;;;1.23;0.80;;;20.90;57.10;;;;;;5079157;28;20448;-82
2023/12/10 03:10:39;;;;;;;1.07;0.80;;;20.90;57.10;;;;;;5076402;28;20446;-81
2023/12/10 03:13:07;;;;;;;1.03;0.80;;;20.90;57.10;;;;;;5078722;28;20446;-81
2023/12/10 03:15:36;;;;;;;0.50;0.50;;;20.90;57.10;;;;;;5081089;28;20463;-81
2023/12/10 03:18:07;;;;;;;0.97;0.70;;;20.90;57.10;;;;;;5080791;28;20448;-82
2023/12/10 03:20:35;;;;;;;0.57;0.50;;;20.90;57.00;;;;;;5076933;28;20534;-82
2023/12/10 03:23:03;;;;;;;0.90;0.70;;;20.90;57.10;;;;;;5074828;28;20471;-82
2023/12/10 03:25:32;;;;;;;0.57;0.57;;;20.90;57.10;;;;;;5073407;28;20448;-82
2023/12/10 03:28:00;;;;;;;0.70;0.60;;;20.90;57.10;;;;;;5084631;28;20503;-82
2023/12/10 03:30:28;;;;;;;1.10;0.60;;;20.90;57.00;;;;;;5082136;28;20521;-82
2023/12/10 03:32:57;;;;;;;0.90;0.83;;;20.90;57.00;;;;;;5078370;28;20451;-82
2023/12/10 03:35:27;;;;;;;0.70;0.70;;;20.90;57.00;;;;;;5082062;28;20520;-83
2023/12/10 03:37:55;;;;;;;0.80;0.63;;;20.90;57.10;;;;;;5084111;28;20925;-82
2023/12/10 03:40:23;;;;;;;1.53;0.67;;;20.90;57.10;;;;;;5079803;28;20462;-82
2023/12/10 03:42:52;;;;;;;2.13;0.67;;;20.90;57.10;;;;;;5080760;28;20958;-82
2023/12/10 03:45:20;;;;;;;1.10;0.80;;;20.80;57.00;;;;;;5079848;28;20519;-82
2023/12/10 03:47:48;;;;;;;1.37;0.50;;;20.80;57.10;;;;;;5085529;28;20474;-82
2023/12/10 03:50:17;;;;;;;1.00;0.93;;;20.80;57.00;;;;;;5078802;28;20887;-82
2023/12/10 03:52:47;;;;;;;1.83;0.77;;;20.80;57.00;;;;;;5080356;28;20942;-82
2023/12/10 03:55:17;;;;;;;1.20;0.90;;;20.80;57.00;;;;;;5076810;28;20503;-82
2023/12/10 03:57:46;;;;;;;0.80;0.47;;;20.80;57.00;;;;;;5083878;28;20450;-82
2023/12/10 04:00:14;;;;;;;0.97;0.73;;;20.80;57.00;;;;;;5076257;28;21418;-82
2023/12/10 04:02:43;;;;;;;2.07;0.60;;;20.70;57.10;;;;;;5076607;28;20976;-82
2023/12/10 04:05:12;;;;;;;1.10;1.00;;;20.80;57.00;;;;;;5078994;28;20453;-82
2023/12/10 04:07:41;;;;;;;2.23;0.90;;;20.80;57.00;;;;;;5081734;28;20481;-82
2023/12/10 04:10:11;;;;;;;1.23;0.77;;;20.70;57.00;;;;;;5082370;28;20826;-82
2023/12/10 04:12:39;;;;;;;0.70;0.57;;;20.70;57.00;;;;;;5078087;28;20447;-82
2023/12/10 04:15:08;;;;;;;0.60;0.57;;;20.70;57.00;;;;;;5080721;28;20503;-82
2023/12/10 04:17:37;;;;;;;1.83;0.70;;;20.70;57.00;;;;;;5075774;28;20496;-83
2023/12/10 04:20:07;;;;;;;1.43;0.57;;;20.70;57.00;;;;;;5081494;28;20657;-82
2023/12/10 04:22:36;;;;;;;0.80;0.60;;;20.70;57.10;;;;;;5079268;28;20449;-82
2023/12/10 04:25:05;;;;;;;1.00;0.67;;;20.70;57.00;;;;;;5076632;28;20462;-83
2023/12/10 04:27:34;;;;;;;1.00;0.43;;;20.70;57.00;;;;;;5075639;28;20993;-83
2023/12/10 04:30:03;;;;;;;0.93;0.80;;;20.70;57.00;;;;;;5080523;28;20464;-83
2023/12/10 04:32:31;;;;;;;0.60;0.57;;;20.70;57.00;;;;;;5072949;28;20838;-82
2023/12/10 04:35:00;;;;;;;4.30;1.10;;;20.60;57.00;;;;;;5079673;28;20475;-82
2023/12/10 04:37:29;;;;;;;0.83;0.50;;;20.60;57.00;;;;;;5070563;28;20508;-82
2023/12/10 04:39:57;;;;;;;4.17;0.83;;;20.60;57.10;;;;;;5079917;28;20446;-82
2023/12/10 04:42:26;;;;;;;1.23;0.63;;;20.60;56.90;;;;;;5078230;28;20443;-82
2023/12/10 04:44:56;;;;;;;1.10;0.60;;;20.60;56.90;;;;;;5082167;28;20529;-82
2023/12/10 04:47:24;;;;;;;0.60;0.60;;;20.60;56.90;;;;;;5077633;28;20553;-83
2023/12/10 04:49:54;;;;;;;3.43;0.90;;;20.60;56.90;;;;;;5078812;28;20450;-86
2023/12/10 04:52:23;;;;;;;1.70;0.83;;;20.60;56.90;;;;;;5075915;28;20497;-85
2023/12/10 04:54:51;;;;;;;0.87;0.83;;;20.60;56.90;;;;;;5079477;28;20467;-85
2023/12/10 04:57:20;;;;;;;1.93;0.80;;;20.60;56.90;;;;;;5080029;28;20433;-85
2023/12/10 04:59:48;;;;;;;1.70;0.70;;;20.60;56.90;;;;;;5079543;28;20447;-81
2023/12/10 05:02:18;;;;;;;1.67;1.00;;;20.60;56.90;;;;;;5076935;28;20495;-81
2023/12/10 05:04:46;;;;;;;2.10;1.07;;;20.60;56.90;;;;;;5081950;28;20483;-81
2023/12/10 05:07:14;;;;;;;2.00;0.90;;;20.60;56.90;;;;;;5079268;28;20469;-80
2023/12/10 05:09:43;;;;;;;1.43;0.80;;;20.60;56.80;;;;;;5078459;28;20446;-81
2023/12/10 05:12:11;;;;;;;1.30;1.00;;;20.60;56.90;;;;;;5082554;28;20899;-81
2023/12/10 05:14:40;;;;;;;0.80;0.70;;;20.70;56.80;;;;;;5080578;28;20458;-81
2023/12/10 05:17:08;;;;;;;3.10;1.20;;;20.70;56.70;;;;;;5075420;28;20459;-81
2023/12/10 05:19:38;;;;;;;1.60;0.70;;;20.80;56.70;;;;;;5078137;28;20442;-81
2023/12/10 05:22:06;;;;;;;2.57;0.83;;;20.80;56.50;;;;;;5078071;28;20443;-82
2023/12/10 05:24:34;;;;;;;1.80;0.80;;;20.80;56.50;;;;;;5071932;28;20462;-81
2023/12/10 05:27:03;;;;;;;1.30;1.03;;;20.90;56.40;;;;;;5074279;28;20509;-82
2023/12/10 05:29:31;;;;;;;1.83;1.00;;;20.90;56.30;;;;;;5077462;28;20439;-81
2023/12/10 05:31:59;;;;;;;1.00;0.60;;;20.90;56.20;;;;;;5072503;28;20492;-82
2023/12/10 05:34:27;;;;;;;1.87;1.37;;;20.90;56.20;;;;;;5077559;28;20453;-82
2023/12/10 05:36:57;;;;;;;1.87;1.30;;;21.00;56.00;;;;;;5074960;28;20452;-82
2023/12/10 05:39:26;;;;;;;3.00;0.90;;;21.00;56.00;;;;;;5078625;28;20457;-82
2023/12/10 05:41:54;;;;;;;2.73;1.17;;;21.10;55.80;;;;;;5074133;28;20917;-82
2023/12/10 05:44:23;;;;;;;1.07;0.57;;;21.10;55.80;;;;;;5080974;28;20447;-82
2023/12/10 05:46:51;;;;;;;1.43;1.00;;;21.10;55.80;;;;;;5073737;28;20452;-82
2023/12/10 05:49:19;;;;;;;2.77;1.57;;;21.10;55.70;;;;;;5077925;28;20454;-82
2023/12/10 05:51:48;;;;;;;3.60;1.67;;;21.20;55.60;;;;;;5081894;28;20448;-82
2023/12/10 05:54:17;;;;;;;3.33;0.80;;;21.20;55.60;;;;;;5077724;28;20548;-82
2023/12/10 05:56:46;;;;;;;1.37;0.90;;;21.30;55.40;;;;;;5074564;28;20444;-82
2023/12/10 05:59:15;;;;;;;1.43;0.70;;;21.30;55.50;;;;;;5080364;28;20459;-82
2023/12/10 06:01:43;;;;;;;4.00;0.97;;;21.30;55.40;;;;;;5073036;28;20525;-82
2023/12/10 06:04:11;;;;;;;1.43;0.97;;;21.30;55.30;;;;;;5066649;28;20491;-82
2023/12/10 06:06:40;;;;;;;3.17;1.13;;;21.30;55.30;;;;;;5074887;28;20833;-84
2023/12/10 06:09:09;;;;;;;2.90;1.27;;;21.40;55.20;;;;;;5078500;28;20804;-82
2023/12/10 06:11:38;;;;;;;3.03;1.17;;;21.30;55.10;;;;;;5069193;28;20444;-82
2023/12/10 06:14:07;;;;;;;1.27;1.10;;;21.30;55.30;;;;;;5084047;28;20476;-82
2023/12/10 06:16:35;;;;;;;2.57;0.87;;;21.30;55.20;;;;;;5072910;28;20485;-82
2023/12/10 06:19:04;;;;;;;1.97;1.33;;;21.30;55.10;;;;;;5076182;28;20446;-82
2023/12/10 06:21:33;;;;;;;5.13;1.37;;;21.30;55.20;;;;;;5076889;28;20453;-82
2023/12/10 06:24:03;;;;;;;1.30;0.90;;;21.30;55.10;;;;;;5072702;28;20451;-82
2023/12/10 06:26:31;;;;;;;1.93;1.00;;;21.30;55.30;;;;;;5078557;28;20455;-82
2023/12/10 06:29:01;;;;;;;2.40;1.13;;;21.30;55.10;;;;;;5082745;28;20966;-82
2023/12/10 06:31:29;;;;;;;1.03;0.93;;;21.30;55.10;;;;;;5072008;28;20440;-82
2023/12/10 06:33:57;;;;;;;2.10;1.10;;;21.20;55.20;;;;;;5079017;28;20947;-82
2023/12/10 06:36:26;;;;;;;2.40;1.10;;;21.20;55.10;;;;;;5084109;28;20445;-82
2023/12/10 06:38:54;;;;;;;2.53;0.80;;;21.20;55.20;;;;;;5079379;28;20474;-82
2023/12/10 06:41:22;;;;;;;1.67;0.90;;;21.30;55.10;;;;;;5080244;28;20442;-82
2023/12/10 06:43:50;;;;;;;1.40;0.80;;;21.20;55.20;;;;;;5070241;28;20448;-82
2023/12/10 06:46:20;;;;;;;3.03;1.47;;;21.30;55.20;;;;;;5074282;28;20453;-81
2023/12/10 06:48:48;;;;;;;2.73;1.07;;;21.30;55.20;;;;;;5082082;28;20519;-82
2023/12/10 06:51:17;;;;;;;1.80;1.00;;;21.30;55.10;;;;;;5082211;28;20459;-82
2023/12/10 06:53:45;;;;;;;1.50;1.10;;;21.30;55.20;;;;;;5081091;28;20448;-82
2023/12/10 06:56:14;;;;;;;3.50;1.53;;;21.20;55.10;;;;;;5078923;28;20517;-82
2023/12/10 06:58:42;;;;;;;2.70;0.87;;;21.30;55.10;;;;;;5080984;28;20461;-82
2023/12/10 07:01:10;;;;;;;1.60;0.90;;;21.30;55.10;;;;;;5083681;28;20443;-81
2023/12/10 07:03:40;;;;;;;3.50;0.90;;;21.30;55.20;;;;;;5078035;28;20858;-82
2023/12/10 07:06:08;;;;;;;2.50;1.37;;;21.30;55.10;;;;;;5080731;28;20441;-81
2023/12/10 07:08:37;;;;;;;2.73;1.27;;;21.30;55.10;;;;;;5076931;28;20858;-81
2023/12/10 07:11:10;;;;;;;2.43;1.30;;;21.30;55.00;;;;;;5080375;28;20798;-81
2023/12/10 07:13:38;;;;;;;1.53;1.30;;;21.30;55.10;;;;;;5080848;28;20444;-81
2023/12/10 07:16:07;;;;;;;2.17;1.10;;;21.30;55.00;;;;;;5079856;28;20456;-81
2023/12/10 07:18:36;;;;;;;2.47;1.00;;;21.30;55.10;;;;;;5079440;28;20489;-81
2023/12/10 07:21:06;;;;;;;2.20;1.00;;;21.30;55.10;;;;;;5078027;28;20450;-81
2023/12/10 07:23:36;;;;;;;2.27;1.30;;;21.30;55.00;;;;;;5074814;28;20455;-81
2023/12/10 07:26:04;;;;;;;4.33;1.23;;;21.30;55.10;;;;;;5079690;28;20471;-81
2023/12/10 07:28:33;;;;;;;1.63;1.20;;;21.30;55.20;;;;;;5073738;28;20458;-83
2023/12/10 07:31:01;;;;;;;2.97;1.10;;;21.30;55.20;;;;;;5070517;28;20464;-81
2023/12/10 07:33:29;;;;;;;3.87;1.30;;;21.30;55.20;;;;;;5076374;28;20435;-82
2023/12/10 07:35:58;;;;;;;4.20;1.37;;;21.30;55.20;;;;;;5082441;28;20919;-82
2023/12/10 07:38:28;;;;;;;3.00;1.20;;;21.30;55.30;;;;;;5073308;28;20454;-84
2023/12/10 07:40:56;;;;;;;2.40;1.07;;;21.30;55.30;;;;;;5072455;28;20950;-84
2023/12/10 07:43:24;;;;;;;3.17;1.30;;;21.30;55.30;;;;;;5069867;28;20534;-84
2023/12/10 07:45:53;;;;;;;2.73;1.13;;;21.30;55.20;;;;;;5073256;28;20530;-81
2023/12/10 07:48:21;;;;;;;1.93;1.10;;;21.40;55.30;;;;;;5077191;28;20473;-82
2023/12/10 07:50:50;;;;;;;3.53;1.33;;;21.40;55.20;;;;;;5071624;28;20931;-82
2023/12/10 07:53:18;;;;;;;1.10;0.80;;;21.40;55.10;;;;;;5073370;28;20455;-82
2023/12/10 07:55:48;;;;;;;1.60;1.13;;;21.40;55.20;;;;;;5075568;28;20433;-82
2023/12/10 07:58:16;;;;;;;1.70;1.30;;;21.40;55.10;;;;;;5074975;28;20967;-81
2023/12/10 08:00:47;;;;;;;2.13;1.10;;;21.40;55.20;;;;;;5077164;28;20545;-82
2023/12/10 08:03:15;;;;;;;2.80;1.40;;;21.50;55.10;;;;;;5082277;28;20563;-81
2023/12/10 08:05:44;;;;;;;3.43;1.50;;;21.50;55.10;;;;;;5072936;28;20462;-82
2023/12/10 08:08:12;;;;;;;3.67;1.23;;;21.50;54.80;;;;;;5076714;28;20448;-82
2023/12/10 08:10:41;;;;;;;2.40;1.30;;;21.50;55.10;;;;;;5076772;28;20460;-82
2023/12/10 08:13:10;;;;;;;1.40;1.07;;;21.50;55.00;;;;;;5066204;28;20460;-83
2023/12/10 08:15:39;;;;;;;3.33;1.47;;;21.60;55.00;;;;;;5077242;28;20440;-83
2023/12/10 08:18:07;;;;;;;4.20;1.43;;;21.60;55.00;;;;;;5071307;28;20475;-83
2023/12/10 08:20:36;;;;;;;2.53;0.93;;;21.50;55.00;;;;;;5066358;28;20501;-82
2023/12/10 08:23:04;;;;;;;2.87;1.03;;;21.60;55.00;;;;;;5066988;28;20469;-83
2023/12/10 08:25:33;;;;;;;2.97;1.90;;;21.50;54.90;;;;;;5065418;28;20468;-83
2023/12/10 08:28:02;;;;;;;1.87;1.33;;;21.50;55.00;;;;;;5063611;28;20547;-83
2023/12/10 08:30:32;;;;;;;2.73;1.30;;;21.50;55.00;;;;;;5068042;28;20802;-83
2023/12/10 08:33:00;;;;;;;2.00;0.90;;;21.50;55.10;;;;;;5070131;28;21078;-83
2023/12/10 08:35:28;;;;;;;1.93;1.20;;;21.50;55.20;;;;;;5066559;28;20460;-83
2023/12/10 08:37:57;;;;;;;7.30;1.37;;;21.50;55.10;;;;;;5073408;28;20462;-83
2023/12/10 08:40:25;;;;;;;2.17;1.13;;;21.50;55.00;;;;;;5068611;28;20464;-82
2023/12/10 08:42:53;;;;;;;1.40;0.90;;;21.50;55.10;;;;;;5067233;28;20461;-82
2023/12/10 08:45:23;;;;;;;3.77;1.17;;;21.50;55.10;;;;;;5064056;28;20779;-83
2023/12/10 08:47:53;;;;;;;3.60;1.17;;;21.50;55.10;;;;;;5067427;28;20466;-82
2023/12/10 08:50:21;;;;;;;4.80;1.40;;;21.50;55.20;;;;;;5069807;28;20484;-82
2023/12/10 08:52:49;;;;;;;3.60;0.97;;;21.50;55.20;;;;;;5072722;28;20453;-83
2023/12/10 08:55:18;;;;;;;2.03;1.30;;;21.50;55.20;;;;;;5069860;28;20463;-82
2023/12/10 08:57:46;;;;;;;3.13;1.20;;;21.50;55.10;;;;;;5067788;28;20507;-82
2023/12/10 09:00:16;;;;;;;2.57;1.27;;;21.50;55.20;;;;;;5069140;28;20537;-72
2023/12/10 09:02:44;;;;;;;2.87;1.00;;;21.50;55.20;;;;;;5068865;28;20496;-81
2023/12/10 09:05:14;;;;;;;2.97;1.40;;;21.50;55.10;;;;;;5069344;28;20448;-84
2023/12/10 09:07:44;;;;;;;1.83;1.40;;;21.50;55.20;;;;;;5068584;28;20456;-82
2023/12/10 09:10:12;;;;;;;1.67;1.07;;;21.50;55.10;;;;;;5073380;28;20956;-82
2023/12/10 09:12:41;;;;;;;2.60;1.37;;;21.50;55.10;;;;;;5069367;28;20462;-83
2023/12/10 09:15:10;;;;;;;2.77;1.60;;;21.50;55.30;;;;;;5071158;28;20548;-84
2023/12/10 09:17:39;;;;;;;3.80;1.77;;;21.60;55.20;;;;;;5076501;28;20457;-85
2023/12/10 09:20:09;;;;;;;3.67;1.50;;;21.60;55.40;;;;;;5080761;28;20919;-82
2023/12/10 09:22:39;;;;;;;3.17;1.90;;;21.60;55.20;;;;;;5074040;28;20457;-81
2023/12/10 09:25:08;;;;;;;2.50;1.23;;;21.60;55.30;;;;;;5068918;28;20488;-81
2023/12/10 09:27:37;;;;;;;4.37;1.70;;;21.60;55.50;;;;;;5072211;28;20548;-82
2023/12/10 09:30:06;;;;;;;2.03;1.43;;;21.60;55.40;;;;;;5072804;28;21028;-83
2023/12/10 09:32:40;;;;;;;3.30;1.50;;;21.70;55.20;;;;;;5074291;28;21028;-82
2023/12/10 09:35:09;;;;;;;5.43;1.53;;;21.70;55.40;;;;;;5078569;28;20448;-84
2023/12/10 09:37:39;;;;;;;3.53;1.40;;;21.70;55.20;;;;;;5070234;28;20475;-83
2023/12/10 09:40:08;;;;;;;4.00;2.10;;;21.70;55.30;;;;;;5068868;28;20956;-83
2023/12/10 09:42:36;;;;;;;4.23;1.63;;;21.70;55.20;;;;;;5065128;28;20462;-84
2023/12/10 09:45:06;;;;;;;2.73;1.03;;;21.70;55.20;;;;;;5071900;28;20460;-86
2023/12/10 09:47:36;;;;;;;6.30;1.70;;;21.80;55.20;;;;;;5069420;28;20933;-82
2023/12/10 09:50:05;;;;;;;2.70;1.30;;;21.80;55.30;;;;;;5077317;28;20977;-82
2023/12/10 09:52:34;;;;;;;2.30;1.37;;;21.80;55.20;;;;;;5078914;28;20468;-84
2023/12/10 09:55:04;;;;;;;3.93;1.40;;;21.80;55.30;;;;;;5065897;28;20475;-84
2023/12/10 09:57:32;;;;;;;2.70;1.47;;;21.80;55.30;;;;;;5070288;28;20866;-83
2023/12/10 10:00:01;;;;;;;1.97;1.47;;;21.80;55.30;;;;;;5074245;28;20464;-83
2023/12/10 10:02:32;;;;;;;2.40;1.10;;;21.80;55.30;;;;;;5079691;28;20461;-82
2023/12/10 10:05:02;;;;;;;3.70;1.40;;;21.80;55.40;;;;;;5071077;28;21167;-84
2023/12/10 10:07:30;;;;;;;1.80;1.27;;;21.80;55.40;;;;;;5079755;28;20488;-84
2023/12/10 10:09:59;;;;;;;2.77;1.67;;;21.80;55.40;;;;;;5070047;28;20474;-82
2023/12/10 10:12:30;;;;;;;3.37;1.40;;;21.90;55.40;;;;;;5074499;28;20490;-81
2023/12/10 10:15:04;;;;;;;2.90;1.60;;;21.90;55.50;;;;;;5076287;28;20447;-81
2023/12/10 10:17:35;;;;;;;2.60;1.60;;;22.00;55.50;;;;;;5077221;28;20454;-79
2023/12/10 10:20:05;;;;;;;3.43;1.80;;;22.00;55.50;;;;;;5071498;28;20457;-80
2023/12/10 10:22:34;;;;;;;2.70;1.73;;;22.10;55.50;;;;;;5071847;28;20529;-80
2023/12/10 10:25:03;;;;;;;4.90;2.60;;;22.10;55.50;;;;;;5076224;28;20789;-80
2023/12/10 10:27:33;;;;;;;3.20;1.30;;;22.20;55.60;;;;;;5073476;28;20468;-81
2023/12/10 10:30:03;;;;;;;3.20;2.17;;;22.30;55.60;;;;;;5067098;28;20572;-80
2023/12/10 10:32:32;;;;;;;1.27;1.03;;;22.40;55.60;;;;;;5078242;28;21073;-81
2023/12/10 10:35:03;;;;;;;3.50;1.40;;;22.50;55.60;;;;;;5073044;28;20567;-81
2023/12/10 10:37:32;;;;;;;2.17;1.30;;;22.60;55.40;;;;;;5075072;28;20446;-80
2023/12/10 10:40:00;;;;;;;3.10;2.20;;;22.70;55.30;;;;;;5068729;28;20477;-81
2023/12/10 10:42:29;;;;;;;6.80;1.37;;;22.80;55.10;;;;;;5070568;28;20474;-80
2023/12/10 10:45:02;;;;;;;3.17;1.50;;;22.70;55.00;;;;;;5074346;28;20453;-81
2023/12/10 10:47:32;;;;;;;1.77;1.17;;;22.70;55.10;;;;;;5079914;28;20920;-81
2023/12/10 10:50:03;;;;;;;1.33;1.23;;;22.70;55.20;;;;;;5077507;28;20476;-81
2023/12/10 10:52:53;;;;;;;4.40;1.60;;;22.60;55.30;;;;;;5071180;28;20468;-79
2023/12/10 10:55:22;;;;;;;2.73;1.93;;;22.60;55.50;;;;;;5073235;28;20453;-81
2023/12/10 10:57:51;;;;;;;2.03;1.20;;;22.60;55.70;;;;;;5072173;28;20457;-83
2023/12/10 11:00:37;;;;;;;3.43;1.47;;;22.50;55.60;;;;;;5073553;28;20469;-84
2023/12/10 11:03:09;;;;;;;2.97;1.63;;;22.40;56.00;;;;;;5069904;28;20490;-86
2023/12/10 11:05:39;;;;;;;4.00;1.57;;;22.40;56.00;;;;;;5078481;28;20447;-87
2023/12/10 11:08:08;;;;;;;2.77;1.57;;;22.30;56.10;;;;;;5074639;28;20488;-86
2023/12/10 11:10:42;;;;;;;2.10;1.60;;;22.30;56.10;;;;;;5079561;28;20472;-81
2023/12/10 11:13:11;;;;;;;3.50;1.17;;;22.20;56.20;;;;;;5068115;28;20959;-79
2023/12/10 11:15:40;;;;;;;3.43;1.23;;;22.20;56.20;;;;;;5077064;28;20481;-80
2023/12/10 11:18:09;;;;;;;2.67;1.40;;;22.10;56.40;;;;;;5077052;28;20440;-84
2023/12/10 11:20:42;;;;;;;3.23;1.60;;;22.10;56.40;;;;;;5077430;28;20453;-80
2023/12/10 11:23:12;;;;;;;2.60;1.50;;;22.10;56.60;;;;;;5077485;28;20445;-81
2023/12/10 11:25:41;;;;;;;2.83;1.53;;;22.00;56.60;;;;;;5080728;28;20454;-81
2023/12/10 11:28:12;;;;;;;3.33;1.30;;;22.00;56.80;;;;;;5071789;28;20518;-80
2023/12/10 11:30:43;;;;;;;3.63;1.50;;;22.00;56.80;;;;;;5081108;28;20928;-80
2023/12/10 11:33:13;;;;;;;4.43;1.70;;;22.00;57.20;;;;;;5073583;28;20639;-80
2023/12/10 11:35:43;;;;;;;5.50;2.10;;;22.00;57.30;;;;;;5076404;28;20514;-84
2023/12/10 11:38:32;;;;;;;5.00;2.17;;;22.00;57.60;;;;;;5073627;28;20543;-83
2023/12/10 11:41:00;;;;;;;4.60;1.83;;;22.00;58.00;;;;;;5067918;28;21141;-81
2023/12/10 11:43:28;;;;;;;5.77;2.07;;;22.00;58.10;;;;;;5068780;28;20509;-83
2023/12/10 11:45:58;;;;;;;6.20;2.70;;;22.00;58.50;;;;;;5076208;28;20466;-81
2023/12/10 11:48:28;;;;;;;5.80;1.80;;;22.00;58.90;;;;;;5070086;28;21870;-82
2023/12/10 11:50:56;;;;;;;5.53;2.20;;;22.00;58.90;;;;;;5078190;28;20480;-81
2023/12/10 11:53:25;;;;;;;8.43;2.90;;;22.00;59.50;;;;;;5083817;28;20448;-82
2023/12/10 11:55:53;;;;;;;6.40;2.57;;;22.10;59.70;;;;;;5072568;28;20801;-82
2023/12/10 11:58:30;;;;;;;3.67;1.73;;;22.10;59.80;;;;;;5076623;28;20452;-82
2023/12/10 12:01:01;;;;;;;7.97;2.67;;;22.10;59.90;;;;;;5079275;28;20446;-81
2023/12/10 12:03:32;;;;;;;5.70;2.90;;;22.10;59.50;;;;;;5078220;28;20492;-83
2023/12/10 12:06:03;;;;;;;3.67;1.60;;;22.20;59.90;;;;;;5077338;28;21357;-81
2023/12/10 12:08:33;;;;;;;6.33;2.00;;;22.20;59.80;;;;;;5080860;28;20453;-83
2023/12/10 12:11:02;;;;;;;4.30;1.60;;;22.20;59.50;;;;;;5073747;28;20473;-80
2023/12/10 12:13:31;;;;;;;5.70;1.93;;;22.20;59.70;;;;;;5102146;27;20815;-80
2023/12/10 12:16:00;;;;;;;5.13;2.20;;;22.20;59.60;;;;;;5076416;28;20460;-80
2023/12/10 12:18:29;;;;;;;5.63;2.00;;;22.20;59.40;;;;;;5069469;28;21095;-80
2023/12/10 12:20:58;;;;;;;3.13;1.70;;;22.20;59.30;;;;;;5065245;28;20481;-80
2023/12/10 12:23:26;;;;;;;3.90;1.70;;;22.20;59.10;;;;;;5068475;28;20464;-78
2023/12/10 12:25:54;;;;;;;3.90;1.73;;;22.20;59.10;;;;;;5072947;28;20456;-78
2023/12/10 12:28:23;;;;;;;4.80;2.63;;;22.20;59.20;;;;;;5073263;28;20515;-79
2023/12/10 12:30:51;;;;;;;3.70;1.80;;;22.10;59.20;;;;;;5065863;28;20473;-78
2023/12/10 12:33:21;;;;;;;5.17;1.87;;;22.10;59.10;;;;;;5073427;28;20522;-80
2023/12/10 12:35:50;;;;;;;5.57;2.00;;;22.10;59.00;;;;;;5071211;28;20476;-79
2023/12/10 12:38:19;;;;;;;5.03;2.40;;;22.00;59.10;;;;;;5069172;28;20488;-78
2023/12/10 12:40:47;;;;;;;3.83;1.70;;;22.00;59.00;;;;;;5070158;28;20457;-80
2023/12/10 12:43:15;;;;;;;5.40;2.57;;;22.00;59.00;;;;;;5069301;28;20462;-79
2023/12/10 12:45:44;;;;;;;4.23;1.87;;;22.00;59.00;;;;;;5073560;28;20452;-80
2023/12/10 12:48:12;;;;;;;3.90;1.70;;;22.00;58.90;;;;;;5069945;28;20456;-81
2023/12/10 12:50:42;;;;;;;1.80;1.60;;;21.90;58.80;;;;;;5072941;28;20937;-81
2023/12/10 12:53:11;;;;;;;5.33;1.70;;;22.00;58.90;;;;;;5077648;28;21257;-81
2023/12/10 12:55:39;;;;;;;2.83;1.60;;;22.00;58.80;;;;;;5067562;28;20469;-80
2023/12/10 12:58:07;;;;;;;2.03;1.30;;;22.00;58.80;;;;;;5078207;28;21132;-80